createdAt,value
2019-06-04T00:01:26.425Z,1.60
2019-06-04T00:04:06.569Z,1.70
2019-06-04T00:07:06.364Z,1.60
2019-06-04T00:12:51.839Z,1.57
2019-06-04T00:15:32.838Z,1.87
2019-06-04T00:21:19.128Z,1.35
2019-06-04T00:24:00.654Z,1.42
2019-06-04T00:26:41.362Z,1.87
2019-06-04T00:41:54.331Z,1.95
2019-06-04T00:44:35.008Z,1.82
2019-06-04T00:56:52.920Z,1.82
2019-06-04T00:59:33.907Z,1.90
2019-06-04T01:02:14.343Z,1.85
2019-06-04T01:11:08.359Z,2.20
2019-06-04T01:13:48.313Z,1.98
2019-06-04T01:20:06.768Z,1.80
2019-06-04T01:22:55.337Z,2.03
2019-06-04T01:25:43.498Z,2.40
2019-06-04T01:28:31.730Z,1.90
2019-06-04T01:33:54.867Z,1.87
2019-06-04T01:36:42.951Z,1.85
2019-06-04T01:42:38.288Z,2.30
2019-06-04T01:45:26.320Z,1.97
2019-06-04T01:48:14.367Z,2.00
2019-06-04T01:51:02.323Z,2.05
2019-06-04T01:53:50.311Z,2.50
2019-06-04T01:56:38.263Z,1.80
2019-06-04T01:59:26.346Z,1.80
2019-06-04T02:02:32.674Z,2.00
2019-06-04T02:05:03.718Z,1.82
2019-06-04T02:08:11.330Z,2.03
2019-06-04T02:11:36.328Z,2.22
2019-06-04T02:14:24.502Z,1.80
2019-06-04T02:17:05.818Z,1.90
2019-06-04T02:19:46.129Z,1.75
2019-06-04T02:22:27.661Z,1.80
2019-06-04T02:25:08.195Z,2.25
2019-06-04T02:27:49.663Z,1.90
2019-06-04T02:30:39.259Z,1.82
2019-06-04T02:33:27.229Z,2.02
2019-06-04T02:36:15.708Z,1.87
2019-06-04T02:39:05.845Z,1.60
2019-06-04T02:41:55.531Z,1.95
2019-06-04T02:44:43.725Z,1.90
2019-06-04T02:50:39.451Z,1.92
2019-06-04T02:53:48.031Z,2.27
2019-06-04T02:56:36.412Z,1.92
2019-06-04T02:59:24.536Z,1.77
2019-06-04T03:05:05.190Z,1.70
2019-06-04T03:07:53.479Z,2.05
2019-06-04T03:11:00.971Z,2.42
2019-06-04T03:14:24.828Z,2.50
2019-06-04T03:17:30.691Z,2.30
2019-06-04T03:20:18.657Z,3.30
2019-06-04T03:23:06.583Z,2.33
2019-06-04T03:28:48.644Z,2.83
2019-06-04T03:31:37.636Z,2.27
2019-06-04T03:34:25.902Z,2.83
2019-06-04T03:37:15.369Z,2.45
2019-06-04T03:40:03.416Z,2.70
2019-06-04T03:42:51.611Z,2.90
2019-06-04T03:45:39.532Z,2.35
2019-06-04T03:48:27.608Z,2.90
2019-06-04T03:51:16.535Z,2.53
2019-06-04T03:54:05.298Z,2.52
2019-06-04T03:56:53.426Z,2.55
2019-06-04T04:02:16.503Z,3.30
2019-06-04T04:05:05.550Z,2.90
2019-06-04T04:07:53.714Z,3.22
2019-06-04T04:10:41.769Z,2.70
2019-06-04T04:13:29.745Z,2.80
2019-06-04T04:16:18.778Z,3.50
2019-06-04T04:33:09.215Z,2.72
2019-06-04T04:39:06.955Z,3.22
2019-06-04T04:41:49.017Z,3.08
2019-06-04T04:44:30.038Z,3.00
2019-06-04T04:47:30.694Z,3.30
2019-06-04T04:50:11.533Z,3.33
2019-06-04T04:52:53.367Z,3.72
2019-06-04T04:55:33.755Z,2.98
2019-06-04T04:58:14.395Z,3.07
2019-06-04T05:00:55.692Z,2.98
2019-06-04T05:03:55.220Z,3.02
2019-06-04T05:09:30.697Z,2.87
2019-06-04T05:12:18.731Z,2.87
2019-06-04T05:15:06.820Z,2.85
2019-06-04T05:17:56.497Z,3.22
2019-06-04T05:20:44.491Z,3.10
2019-06-04T05:24:07.838Z,2.85
2019-06-04T05:26:55.929Z,2.75
2019-06-04T05:29:43.865Z,2.98
2019-06-04T05:32:32.385Z,3.22
2019-06-04T05:41:41.094Z,2.92
2019-06-04T05:44:30.400Z,3.20
2019-06-04T05:47:18.808Z,2.80
2019-06-04T05:50:07.097Z,2.70
2019-06-04T05:52:55.118Z,2.80
2019-06-04T05:55:43.074Z,2.08
2019-06-04T05:58:48.878Z,2.40
2019-06-04T06:04:31.159Z,2.80
2019-06-04T06:07:20.246Z,2.50
2019-06-04T06:10:08.271Z,2.70
2019-06-04T06:12:36.988Z,2.52
2019-06-04T06:15:26.033Z,2.30
2019-06-04T06:18:14.951Z,2.65
2019-06-04T06:21:02.954Z,2.33
2019-06-04T06:23:50.995Z,2.00
2019-06-04T06:26:38.913Z,2.42
2019-06-04T06:32:20.998Z,2.55
2019-06-04T06:35:08.976Z,2.27
2019-06-04T06:37:56.927Z,2.70
2019-06-04T06:40:44.899Z,2.25
2019-06-04T06:43:34.033Z,2.33
2019-06-04T06:49:16.347Z,2.52
2019-06-04T06:52:04.585Z,2.35
2019-06-04T07:01:13.940Z,2.55
2019-06-04T07:04:01.984Z,2.42
2019-06-04T07:06:50.217Z,2.42
2019-06-04T07:09:31.154Z,1.92
2019-06-04T07:12:40.027Z,2.15
2019-06-04T07:15:29.628Z,2.42
2019-06-04T07:18:16.901Z,2.30
2019-06-04T07:21:04.990Z,3.20
2019-06-04T07:30:30.436Z,2.60
2019-06-04T07:36:23.607Z,2.72
2019-06-04T07:39:01.620Z,2.90
2019-06-04T07:41:50.035Z,3.02
2019-06-04T07:44:38.944Z,2.83
2019-06-04T07:47:26.966Z,2.80
2019-06-04T07:50:15.016Z,2.72
2019-06-04T07:53:02.999Z,2.70
2019-06-04T07:55:51.279Z,2.98
2019-06-04T07:58:40.253Z,3.00
2019-06-04T08:01:47.851Z,2.50
2019-06-04T08:04:19.053Z,2.97
2019-06-04T08:07:45.951Z,2.63
2019-06-04T08:14:09.787Z,2.93
2019-06-04T08:19:33.834Z,2.67
2019-06-04T08:22:14.963Z,2.58
2019-06-04T08:24:58.827Z,2.30
2019-06-04T08:30:57.023Z,2.77
2019-06-04T08:33:38.486Z,2.67
2019-06-04T08:36:19.120Z,2.45
2019-06-04T08:39:00.119Z,2.45
2019-06-04T08:41:41.902Z,2.60
2019-06-04T08:47:04.628Z,1.82
2019-06-04T08:49:45.959Z,1.60
2019-06-04T08:55:31.257Z,2.50
2019-06-04T09:00:53.675Z,2.00
2019-06-04T09:03:34.379Z,1.80
2019-06-04T09:12:23.995Z,2.35
2019-06-04T09:15:04.580Z,1.92
2019-06-04T09:17:49.458Z,1.60
2019-06-04T09:23:47.199Z,1.73
2019-06-04T09:26:28.313Z,1.72
2019-06-04T09:29:09.138Z,1.80
2019-06-04T09:31:50.471Z,1.80
2019-06-04T09:34:31.356Z,1.82
2019-06-04T09:37:11.851Z,2.00
2019-06-04T09:39:53.674Z,1.80
2019-06-04T09:42:34.315Z,1.90
2019-06-04T09:45:14.768Z,1.80
2019-06-04T09:47:55.480Z,1.87
2019-06-04T09:50:36.297Z,2.00
2019-06-04T09:53:16.680Z,2.42
2019-06-04T09:55:57.250Z,2.03
2019-06-04T09:58:37.675Z,1.80
2019-06-04T10:01:18.422Z,1.95
2019-06-04T10:03:59.531Z,1.70
2019-06-04T10:06:41.833Z,1.55
2019-06-04T10:09:23.159Z,2.30
2019-06-04T10:12:06.073Z,1.77
2019-06-04T10:14:46.872Z,1.80
2019-06-04T10:17:27.679Z,1.70
2019-06-04T10:20:08.114Z,1.77
2019-06-04T10:26:22.088Z,2.02
2019-06-04T10:28:40.339Z,1.90
2019-06-04T10:31:21.425Z,1.62
2019-06-04T10:34:02.382Z,2.17
2019-06-04T10:36:44.679Z,2.22
2019-06-04T10:39:26.004Z,1.65
2019-06-04T10:42:06.464Z,2.03
2019-06-04T10:51:14.260Z,1.87
2019-06-04T10:53:53.709Z,2.10
2019-06-04T10:56:35.787Z,2.02
2019-06-04T10:59:16.602Z,2.02
2019-06-04T11:01:57.776Z,2.05
2019-06-04T11:04:37.123Z,1.82
2019-06-04T11:07:25.106Z,1.90
2019-06-04T11:10:13.621Z,2.27
2019-06-04T11:13:02.159Z,2.35
2019-06-04T11:15:51.341Z,1.72
2019-06-04T11:18:39.924Z,2.15
2019-06-04T11:21:38.706Z,1.82
2019-06-04T11:24:38.784Z,2.62
2019-06-04T11:27:26.754Z,1.77
2019-06-04T11:33:09.184Z,2.58
2019-06-04T11:36:01.485Z,2.55
2019-06-04T11:39:07.783Z,2.55
2019-06-04T11:41:37.365Z,1.70
2019-06-04T11:44:25.711Z,2.08
2019-06-04T11:50:07.381Z,2.20
2019-06-04T11:52:55.839Z,2.27
2019-06-04T11:55:45.171Z,1.95
2019-06-04T11:58:33.212Z,2.27
2019-06-04T12:07:44.763Z,2.22
2019-06-04T12:10:47.692Z,3.20
2019-06-04T12:13:22.539Z,2.35
2019-06-04T12:16:10.636Z,2.50
2019-06-04T12:19:00.044Z,3.45
2019-06-04T12:21:48.505Z,2.77
2019-06-04T12:30:28.664Z,2.58
2019-06-04T12:33:09.229Z,2.40
2019-06-04T12:35:50.339Z,2.57
2019-06-04T12:38:49.861Z,3.00
2019-06-04T12:41:33.983Z,2.90
2019-06-04T12:44:15.097Z,2.72
2019-06-04T12:50:00.617Z,3.70
2019-06-04T12:55:24.680Z,5.22
2019-06-04T13:01:25.418Z,4.58
2019-06-04T13:06:48.711Z,4.48
2019-06-04T13:09:29.317Z,4.72
2019-06-04T13:12:11.151Z,4.75
2019-06-04T13:14:59.448Z,5.10
2019-06-04T13:20:43.134Z,5.55
2019-06-04T13:23:30.888Z,4.97
2019-06-04T13:26:18.948Z,5.15
2019-06-04T13:29:07.803Z,6.30
2019-06-04T13:31:55.948Z,6.63
2019-06-04T13:34:43.925Z,6.97
2019-06-04T13:37:31.881Z,7.65
2019-06-04T13:43:13.885Z,9.33
2019-06-04T13:46:02.921Z,8.33
2019-06-04T13:48:51.557Z,7.95
2019-06-04T13:51:43.386Z,8.58
2019-06-04T13:54:29.623Z,7.72
2019-06-04T13:57:17.586Z,6.80
2019-06-04T14:00:07.688Z,6.15
2019-06-04T14:02:55.730Z,6.28
2019-06-04T14:05:43.760Z,10.77
2019-06-04T14:08:32.192Z,8.33
2019-06-04T14:11:00.947Z,9.53
2019-06-04T14:13:42.271Z,8.15
2019-06-04T14:16:22.635Z,8.88
2019-06-04T14:19:04.286Z,8.18
2019-06-04T14:21:45.306Z,7.90
2019-06-04T14:24:25.622Z,7.65
2019-06-04T14:27:07.566Z,7.70
2019-06-04T14:29:49.091Z,9.40
2019-06-04T14:32:30.072Z,10.50
2019-06-04T14:35:11.661Z,10.45
2019-06-04T14:37:52.718Z,10.63
2019-06-04T14:40:33.940Z,11.08
2019-06-04T14:43:16.480Z,9.95
2019-06-04T14:45:58.023Z,11.30
2019-06-04T14:48:39.243Z,10.93
2019-06-04T14:51:40.233Z,11.90
2019-06-04T14:54:21.439Z,12.88
2019-06-04T14:59:44.646Z,13.15
2019-06-04T15:05:26.455Z,15.10
2019-06-04T15:08:16.560Z,11.23
2019-06-04T15:11:04.210Z,10.88
2019-06-04T15:13:52.189Z,13.70
2019-06-04T15:16:40.424Z,12.63
2019-06-04T15:19:28.394Z,13.47
2019-06-04T15:22:16.839Z,15.98
2019-06-04T15:28:21.579Z,16.80
2019-06-04T15:31:11.585Z,17.55
2019-06-04T15:34:01.004Z,15.60
2019-06-04T15:36:48.943Z,16.97
2019-06-04T15:39:54.752Z,17.82
2019-06-04T15:42:42.766Z,16.75
2019-06-04T15:45:50.000Z,17.17
2019-06-04T15:51:26.798Z,14.50
2019-06-04T15:54:15.987Z,13.88
2019-06-04T15:57:40.215Z,14.30
2019-06-04T16:03:49.470Z,15.20
2019-06-04T16:07:06.554Z,14.93
2019-06-04T16:12:48.853Z,12.60
2019-06-04T16:15:36.810Z,14.18
2019-06-04T16:18:26.722Z,14.10
2019-06-04T16:24:41.335Z,11.60
2019-06-04T16:27:24.625Z,12.35
2019-06-04T16:30:06.717Z,11.53
2019-06-04T16:36:06.324Z,11.63
2019-06-04T16:42:33.280Z,13.28
2019-06-04T16:45:07.703Z,14.07
2019-06-04T16:47:52.138Z,11.77
2019-06-04T16:50:32.802Z,11.48
2019-06-04T16:53:32.677Z,9.50
2019-06-04T16:56:32.790Z,8.15
2019-06-04T16:59:32.639Z,8.60
2019-06-04T17:02:32.863Z,7.97
2019-06-04T17:05:01.932Z,7.78
2019-06-04T17:07:50.138Z,7.45
2019-06-04T17:13:53.094Z,7.65
2019-06-04T17:16:58.952Z,8.23
2019-06-04T17:22:56.578Z,6.70
2019-06-04T17:31:28.116Z,6.95
2019-06-04T17:34:17.329Z,6.80
2019-06-04T17:37:05.405Z,6.00
2019-06-04T17:40:11.615Z,5.90
2019-06-04T17:43:05.785Z,5.78
2019-06-04T17:45:49.672Z,5.25
2019-06-04T17:48:55.537Z,6.80
2019-06-04T17:54:36.790Z,5.85
2019-06-04T17:57:24.747Z,5.70
2019-06-04T18:05:37.048Z,5.70
2019-06-04T18:08:18.524Z,5.97
2019-06-04T18:10:59.019Z,5.90
2019-06-04T18:13:40.303Z,5.53
2019-06-04T18:16:21.528Z,5.12
2019-06-04T18:19:02.294Z,5.25
2019-06-04T18:21:43.472Z,4.93
2019-06-04T18:24:24.266Z,5.17
2019-06-04T18:27:04.755Z,5.15
2019-06-04T18:29:45.510Z,4.75
2019-06-04T18:32:26.652Z,4.78
2019-06-04T18:35:10.172Z,5.63
2019-06-04T18:37:51.582Z,5.80
2019-06-04T18:40:32.361Z,5.53
2019-06-04T18:43:13.658Z,5.45
2019-06-04T18:45:54.800Z,4.97
2019-06-04T18:51:18.357Z,5.05
2019-06-04T18:53:58.948Z,5.58
2019-06-04T18:56:40.224Z,4.95
2019-06-04T18:59:42.381Z,5.55
2019-06-04T19:05:28.483Z,5.60
2019-06-04T19:08:08.771Z,5.78
2019-06-04T19:10:49.442Z,5.60
2019-06-04T19:13:31.400Z,5.70
2019-06-04T19:16:50.009Z,4.65
2019-06-04T19:18:56.890Z,4.78
2019-06-04T19:21:42.624Z,4.77
2019-06-04T19:24:20.199Z,4.90
2019-06-04T19:27:01.323Z,4.37
2019-06-04T19:32:25.705Z,3.85
2019-06-04T19:35:06.038Z,3.63
2019-06-04T19:37:46.810Z,3.37
2019-06-04T19:43:43.888Z,3.20
2019-06-04T19:46:32.047Z,3.93
2019-06-04T19:49:20.094Z,3.20
2019-06-04T19:52:08.382Z,3.35
2019-06-04T19:54:56.391Z,3.62
2019-06-04T19:57:45.496Z,3.50
2019-06-04T20:00:27.990Z,3.60
2019-06-04T20:03:28.023Z,2.90
2019-06-04T20:06:28.026Z,2.90
2019-06-04T20:09:09.069Z,3.30
2019-06-04T20:11:50.154Z,3.45
2019-06-04T20:17:13.565Z,3.75
2019-06-04T20:19:54.741Z,3.45
2019-06-04T20:25:39.963Z,3.05
2019-06-04T20:28:11.022Z,3.42
2019-06-04T20:30:59.029Z,4.62
2019-06-04T20:33:47.030Z,4.03
2019-06-04T20:36:52.650Z,3.70
2019-06-04T20:39:41.936Z,4.08
2019-06-04T20:42:30.290Z,3.40
2019-06-04T20:45:35.900Z,4.00
2019-06-04T20:48:24.033Z,4.35
2019-06-04T20:51:12.073Z,3.52
2019-06-04T20:57:31.513Z,3.90
2019-06-04T21:03:47.680Z,4.15
2019-06-04T21:06:53.803Z,3.92
2019-06-04T21:09:42.982Z,4.17
2019-06-04T21:12:31.187Z,5.45
2019-06-04T21:18:16.883Z,5.08
2019-06-04T21:21:39.443Z,5.08
2019-06-04T21:24:27.676Z,8.87
2019-06-04T21:30:27.551Z,8.80
2019-06-04T21:33:15.579Z,6.12
2019-06-04T21:36:03.544Z,5.97
2019-06-04T21:41:46.698Z,5.40
2019-06-04T21:44:36.086Z,6.87
2019-06-04T21:47:24.098Z,4.92
2019-06-04T21:50:12.096Z,4.42
2019-06-04T21:53:00.999Z,5.90
2019-06-04T21:55:50.443Z,6.95
2019-06-04T21:58:39.438Z,5.16
2019-06-04T22:01:27.734Z,4.55
2019-06-04T22:04:18.794Z,4.80
2019-06-04T22:07:06.788Z,5.87
2019-06-04T22:09:56.188Z,5.43
2019-06-04T22:12:56.767Z,4.85
2019-06-04T22:18:43.006Z,5.72
2019-06-04T22:21:30.972Z,9.95
2019-06-04T22:24:19.086Z,6.35
2019-06-04T22:27:07.023Z,5.92
2019-06-04T22:29:55.656Z,17.10
2019-06-04T22:32:25.735Z,14.43
2019-06-04T22:41:40.874Z,6.17
2019-06-04T22:45:04.535Z,5.42
2019-06-04T22:51:22.815Z,5.33
2019-06-04T22:54:10.832Z,5.75
2019-06-04T22:59:54.116Z,6.05
2019-06-04T23:05:37.449Z,5.80
2019-06-04T23:08:25.406Z,6.55
2019-06-04T23:11:13.343Z,6.20
2019-06-04T23:14:01.452Z,5.13
2019-06-04T23:20:42.619Z,6.47
2019-06-04T23:26:41.076Z,6.25
2019-06-04T23:32:37.879Z,7.13
2019-06-04T23:42:01.784Z,7.43
2019-06-04T23:54:14.204Z,6.70
2019-06-04T23:56:55.307Z,8.03
2019-06-04T23:59:36.011Z,7.33
